createdAt,value
2022-11-28T00:00:07.081Z,5.68
2022-11-28T00:05:08.006Z,6.08
2022-11-28T00:10:02.127Z,5.67
2022-11-28T00:14:56.040Z,5.88
2022-11-28T00:19:50.658Z,6.21
2022-11-28T00:24:46.252Z,5.48
2022-11-28T00:29:40.328Z,5.60
2022-11-28T00:34:34.848Z,5.08
2022-11-28T00:39:29.760Z,5.75
2022-11-28T00:44:23.140Z,6.06
2022-11-28T00:49:16.530Z,6.06
2022-11-28T00:54:09.928Z,5.99
2022-11-28T00:59:05.169Z,5.37
2022-11-28T01:04:26.527Z,5.93
2022-11-28T01:09:24.473Z,6.55
2022-11-28T01:14:22.439Z,5.09
2022-11-28T01:19:16.419Z,4.98
2022-11-28T01:24:10.324Z,6.03
2022-11-28T01:29:03.920Z,4.79
2022-11-28T01:33:59.783Z,5.05
2022-11-28T01:38:55.872Z,6.43
2022-11-28T01:44:07.393Z,5.37
2022-11-28T01:49:24.700Z,6.42
2022-11-28T01:54:20.166Z,6.36
2022-11-28T01:59:16.601Z,5.69
2022-11-28T02:04:14.803Z,5.88
2022-11-28T02:09:11.456Z,5.01
2022-11-28T02:14:15.848Z,5.47
2022-11-28T02:19:36.071Z,5.43
2022-11-28T02:24:56.188Z,5.19
2022-11-28T02:30:21.529Z,4.91
2022-11-28T02:35:23.042Z,5.80
2022-11-28T02:40:23.229Z,6.19
2022-11-28T02:45:28.159Z,5.73
2022-11-28T02:50:29.912Z,5.70
2022-11-28T02:55:23.734Z,6.13
2022-11-28T03:00:31.349Z,6.04
2022-11-28T03:05:31.575Z,6.11
2022-11-28T03:10:34.292Z,4.85
2022-11-28T03:15:38.369Z,6.09
2022-11-28T03:20:47.172Z,5.15
2022-11-28T03:25:51.095Z,4.92
2022-11-28T03:30:54.027Z,5.67
2022-11-28T03:35:55.458Z,4.85
2022-11-28T03:40:52.624Z,5.16
2022-11-28T03:45:58.394Z,5.65
2022-11-28T03:51:07.439Z,4.86
2022-11-28T03:56:10.792Z,4.78
2022-11-28T04:01:11.394Z,5.17
2022-11-28T04:06:08.883Z,6.08
2022-11-28T04:11:08.938Z,4.55
2022-11-28T04:16:10.849Z,4.60
2022-11-28T04:21:14.362Z,5.37
2022-11-28T04:26:17.994Z,5.58
2022-11-28T04:31:12.462Z,5.71
2022-11-28T04:36:12.091Z,5.23
2022-11-28T04:41:13.309Z,4.50
2022-11-28T04:46:11.432Z,4.38
2022-11-28T04:51:17.577Z,5.38
2022-11-28T04:56:20.185Z,4.52
2022-11-28T05:01:20.767Z,4.54
2022-11-28T05:06:34.044Z,5.92
2022-11-28T05:11:29.800Z,5.38
2022-11-28T05:16:24.155Z,4.52
2022-11-28T05:21:45.267Z,4.63
2022-11-28T05:26:51.510Z,4.68
2022-11-28T05:31:50.743Z,5.91
2022-11-28T05:36:47.988Z,4.49
2022-11-28T05:41:44.429Z,5.89
2022-11-28T05:46:38.033Z,5.93
2022-11-28T05:51:31.616Z,5.21
2022-11-28T05:56:26.640Z,5.95
2022-11-28T06:01:22.598Z,4.76
2022-11-28T06:06:17.844Z,5.59
2022-11-28T06:11:12.409Z,4.64
2022-11-28T06:16:11.717Z,6.01
2022-11-28T06:21:08.946Z,4.71
2022-11-28T06:26:06.989Z,6.08
2022-11-28T06:31:00.620Z,5.72
2022-11-28T06:36:00.453Z,6.09
2022-11-28T06:40:57.640Z,6.03
2022-11-28T06:45:50.865Z,6.08
2022-11-28T06:50:44.200Z,6.10
2022-11-28T06:55:38.975Z,5.46
2022-11-28T07:00:32.882Z,5.90
2022-11-28T07:05:27.881Z,6.20
2022-11-28T07:10:21.321Z,6.08
2022-11-28T07:15:16.109Z,6.24
2022-11-28T07:20:10.994Z,6.23
2022-11-28T07:25:06.749Z,6.50
2022-11-28T07:30:02.076Z,6.20
2022-11-28T07:34:56.694Z,6.34
2022-11-28T07:39:51.871Z,6.61
2022-11-28T07:44:45.325Z,6.66
2022-11-28T07:49:41.406Z,6.72
2022-11-28T07:54:36.443Z,6.14
2022-11-28T07:59:29.899Z,6.64
2022-11-28T08:04:23.228Z,6.74
2022-11-28T08:09:16.578Z,6.66
2022-11-28T08:14:11.643Z,6.87
2022-11-28T08:19:05.317Z,6.78
2022-11-28T08:24:00.947Z,6.88
2022-11-28T08:28:54.886Z,6.49
2022-11-28T08:33:51.185Z,7.18
2022-11-28T08:39:02.987Z,6.99
2022-11-28T08:43:59.549Z,7.30
2022-11-28T08:48:54.224Z,6.98
2022-11-28T08:53:49.407Z,7.00
2022-11-28T08:58:42.777Z,7.20
2022-11-28T09:03:35.997Z,6.49
2022-11-28T09:08:30.685Z,6.91
2022-11-28T09:13:24.108Z,7.04
2022-11-28T09:18:18.290Z,6.93
2022-11-28T09:23:11.880Z,7.29
2022-11-28T09:28:06.827Z,7.27
2022-11-28T09:33:00.283Z,7.21
2022-11-28T09:37:53.436Z,6.99
2022-11-28T09:42:47.206Z,7.21
2022-11-28T09:47:44.140Z,7.58
2022-11-28T09:52:44.458Z,7.59
2022-11-28T09:57:41.810Z,7.05
2022-11-28T10:02:44.032Z,7.48
2022-11-28T10:07:53.703Z,6.88
2022-11-28T10:12:58.025Z,7.81
2022-11-28T10:17:58.935Z,7.77
2022-11-28T10:22:58.509Z,7.81
2022-11-28T10:27:52.441Z,7.84
2022-11-28T10:32:53.456Z,8.02
2022-11-28T10:37:46.904Z,7.68
2022-11-28T10:42:46.530Z,7.83
2022-11-28T10:47:54.547Z,8.12
2022-11-28T10:52:53.826Z,7.83
2022-11-28T10:57:57.872Z,8.22
2022-11-28T11:02:52.590Z,8.34
2022-11-28T11:07:51.370Z,8.17
2022-11-28T11:12:45.603Z,8.09
2022-11-28T11:17:40.146Z,8.26
2022-11-28T11:22:33.713Z,8.36
2022-11-28T11:27:27.058Z,8.22
2022-11-28T11:32:24.878Z,8.22
2022-11-28T11:37:38.086Z,8.02
2022-11-28T11:42:32.642Z,8.13
2022-11-28T11:47:42.470Z,7.51
2022-11-28T11:52:37.034Z,7.78
2022-11-28T11:57:35.182Z,8.01
2022-11-28T12:02:35.393Z,7.86
2022-11-28T12:07:34.890Z,8.00
2022-11-28T12:12:30.953Z,7.64
2022-11-28T12:17:50.089Z,7.76
2022-11-28T12:22:57.253Z,7.73
2022-11-28T12:28:03.117Z,7.62
2022-11-28T12:33:12.897Z,7.69
2022-11-28T12:38:20.349Z,7.53
2022-11-28T12:43:29.365Z,7.54
2022-11-28T12:48:42.476Z,7.66
2022-11-28T12:54:00.436Z,7.85
2022-11-28T12:59:02.096Z,7.73
2022-11-28T13:04:06.533Z,7.86
2022-11-28T13:09:16.414Z,7.95
2022-11-28T13:14:21.519Z,7.97
2022-11-28T13:19:29.951Z,7.56
2022-11-28T13:24:31.388Z,7.89
2022-11-28T13:29:33.808Z,7.84
2022-11-28T13:34:27.941Z,7.95
2022-11-28T13:39:33.263Z,7.73
2022-11-28T13:44:36.696Z,8.00
2022-11-28T13:49:30.685Z,7.98
2022-11-28T13:54:48.879Z,7.94
2022-11-28T13:59:50.538Z,7.87
2022-11-28T14:04:45.609Z,7.78
2022-11-28T14:09:53.332Z,7.74
2022-11-28T14:15:09.993Z,7.49
2022-11-28T14:20:16.472Z,7.51
2022-11-28T14:25:18.171Z,6.97
2022-11-28T14:30:26.010Z,7.49
2022-11-28T14:35:57.885Z,7.35
2022-11-28T14:41:02.426Z,7.40
2022-11-28T14:46:34.910Z,7.39
2022-11-28T14:52:15.801Z,7.15
2022-11-28T14:57:18.203Z,6.65
2022-11-28T15:02:46.285Z,6.59
2022-11-28T15:07:55.619Z,7.31
2022-11-28T15:13:04.431Z,6.72
2022-11-28T15:18:03.650Z,7.26
2022-11-28T15:22:57.210Z,7.22
2022-11-28T15:27:55.767Z,6.55
2022-11-28T15:32:52.007Z,5.95
2022-11-28T15:37:50.947Z,6.87
2022-11-28T15:42:45.228Z,6.85
2022-11-28T15:47:39.772Z,6.38
2022-11-28T15:52:36.373Z,5.62
2022-11-28T15:57:33.771Z,6.03
2022-11-28T16:02:40.534Z,6.16
2022-11-28T16:07:42.925Z,5.59
2022-11-28T16:12:36.511Z,5.44
2022-11-28T16:17:35.756Z,5.79
2022-11-28T16:22:35.377Z,5.21
2022-11-28T16:27:36.207Z,5.98
2022-11-28T16:32:44.015Z,6.44
2022-11-28T16:37:39.410Z,5.08
2022-11-28T16:42:41.709Z,6.25
2022-11-28T16:47:37.240Z,5.05
2022-11-28T16:52:57.934Z,5.51
2022-11-28T16:58:03.876Z,5.42
2022-11-28T17:02:58.789Z,5.48
2022-11-28T17:07:56.332Z,5.44
2022-11-28T17:12:57.876Z,5.34
2022-11-28T17:17:52.960Z,5.49
2022-11-28T17:22:56.495Z,5.13
2022-11-28T17:28:00.763Z,5.51
2022-11-28T17:32:55.421Z,5.89
2022-11-28T17:37:48.905Z,5.85
2022-11-28T17:42:44.423Z,5.80
2022-11-28T17:47:38.133Z,4.91
2022-11-28T17:52:33.749Z,5.05
2022-11-28T17:57:27.168Z,5.72
2022-11-28T18:02:20.525Z,5.45
2022-11-28T18:07:16.306Z,5.65
2022-11-28T18:12:11.229Z,5.62
2022-11-28T18:17:04.604Z,4.88
2022-11-28T18:21:57.884Z,4.60
2022-11-28T18:26:51.497Z,4.93
2022-11-28T18:31:47.172Z,4.70
2022-11-28T18:36:41.756Z,5.36
2022-11-28T18:41:36.274Z,5.13
2022-11-28T18:46:32.449Z,4.76
2022-11-28T18:51:31.903Z,4.67
2022-11-28T18:56:26.002Z,4.59
2022-11-28T19:01:22.282Z,4.90
2022-11-28T19:06:15.801Z,5.27
2022-11-28T19:11:15.090Z,5.24
2022-11-28T19:16:14.566Z,4.79
2022-11-28T19:21:08.683Z,5.20
2022-11-28T19:26:03.196Z,4.96
2022-11-28T19:31:00.664Z,4.84
2022-11-28T19:35:57.221Z,4.84
2022-11-28T19:40:52.752Z,5.37
2022-11-28T19:45:54.476Z,4.94
2022-11-28T19:50:51.102Z,4.30
2022-11-28T19:55:47.900Z,5.32
2022-11-28T20:00:43.800Z,5.42
2022-11-28T20:05:40.738Z,4.19
2022-11-28T20:10:39.001Z,5.04
2022-11-28T20:15:37.491Z,5.41
2022-11-28T20:20:32.249Z,4.44
2022-11-28T20:25:25.936Z,5.13
2022-11-28T20:30:21.227Z,5.39
2022-11-28T20:35:16.344Z,5.17
2022-11-28T20:40:13.696Z,4.70
2022-11-28T20:45:08.425Z,5.19
2022-11-28T20:50:03.527Z,3.92
2022-11-28T20:54:58.150Z,3.85
2022-11-28T20:59:55.400Z,4.01
2022-11-28T21:04:51.812Z,4.64
2022-11-28T21:10:03.985Z,3.74
2022-11-28T21:15:00.826Z,3.85
2022-11-28T21:20:00.477Z,4.31
2022-11-28T21:24:58.805Z,4.11
2022-11-28T21:29:55.706Z,4.02
2022-11-28T21:34:51.348Z,3.60
2022-11-28T21:46:23.726Z,3.80
2022-11-28T21:51:18.480Z,4.86
2022-11-28T21:56:13.046Z,4.07
2022-11-28T22:01:08.484Z,5.29
2022-11-28T22:06:09.530Z,4.63
2022-11-28T22:11:04.992Z,3.99
2022-11-28T22:15:58.449Z,5.22
2022-11-28T22:20:53.190Z,3.91
2022-11-28T22:25:53.394Z,4.92
2022-11-28T22:30:47.208Z,5.06
2022-11-28T22:35:40.655Z,5.09
2022-11-28T22:40:34.038Z,4.63
2022-11-28T22:45:28.690Z,4.61
2022-11-28T22:50:25.130Z,4.81
2022-11-28T22:55:19.072Z,4.61
2022-11-28T23:00:13.731Z,3.67
2022-11-28T23:05:09.258Z,5.08
2022-11-28T23:10:02.993Z,4.25
2022-11-28T23:14:56.299Z,3.86
2022-11-28T23:19:50.486Z,4.76
2022-11-28T23:24:47.619Z,5.08
2022-11-28T23:29:41.132Z,5.08
2022-11-28T23:34:36.968Z,4.84
2022-11-28T23:39:30.326Z,5.03
2022-11-28T23:44:32.320Z,5.00
2022-11-28T23:49:25.542Z,4.12
2022-11-28T23:54:19.060Z,4.90
2022-11-28T23:59:16.454Z,4.84
